Time;durP1;ratioP1;P1;durP2;ratioP2;P2;SDS_P1;SDS_P2;PMS_P1;PMS_P2;Temp;Humidity;BMP_temperature;BMP_pressure;BME280_temperature;BME280_humidity;BME280_pressure;Samples;Min_cycle;Max_cycle;Signal;HPM_P1;HPM_P2
2021/04/24 00:01:07;;;;;;;10.10;5.30;;;;;;;5.89;55.75;96045.31;4969441;28;20039;-75
2021/04/24 00:03:33;;;;;;;11.93;5.53;;;;;;;5.84;55.74;96042.63;4969419;28;20061;-76
2021/04/24 00:05:59;;;;;;;7.88;5.15;;;;;;;5.70;56.94;96044.88;4969684;28;20522;-75
2021/04/24 00:08:24;;;;;;;11.82;5.40;;;;;;;5.66;57.38;96041.13;4971128;28;20022;-75
2021/04/24 00:10:49;;;;;;;14.30;6.05;;;;;;;5.73;57.09;96044.38;4974993;28;20082;-76
2021/04/24 00:13:15;;;;;;;13.60;5.75;;;;;;;5.70;57.06;96044.88;4972891;28;20066;-74
2021/04/24 00:15:42;;;;;;;9.88;5.00;;;;;;;5.54;58.15;96035.22;4987572;28;20046;-72
2021/04/24 00:18:09;;;;;;;8.57;5.30;;;;;;;5.64;57.42;96045.06;4972469;28;20035;-75
2021/04/24 00:20:35;;;;;;;12.43;5.53;;;;;;;5.59;57.63;96032.63;4972644;28;20039;-75
2021/04/24 00:23:01;;;;;;;9.18;5.18;;;;;;;5.57;57.55;96034.69;4989456;28;20146;-76
2021/04/24 00:25:26;;;;;;;7.18;4.70;;;;;;;5.53;57.81;96038.91;4987606;28;20096;-75
2021/04/24 00:27:52;;;;;;;9.43;5.65;;;;;;;5.48;58.26;96036.22;4972249;28;20035;-76
2021/04/24 00:30:18;;;;;;;12.50;5.65;;;;;;;5.45;57.91;96036.72;4972556;28;20386;-74
2021/04/24 00:32:44;;;;;;;7.07;5.50;;;;;;;5.43;57.99;96036.97;4970978;28;20035;-76
2021/04/24 00:35:11;;;;;;;11.52;5.75;;;;;;;5.41;58.31;96041.69;4974466;28;20739;-73
2021/04/24 00:37:37;;;;;;;8.63;5.22;;;;;;;5.33;59.02;96031.59;4972038;28;20101;-75
2021/04/24 00:40:04;;;;;;;9.38;5.03;;;;;;;5.36;58.60;96038.19;4972196;28;20098;-74
2021/04/24 00:42:30;;;;;;;8.52;5.68;;;;;;;5.26;58.70;96025.69;4987020;28;20035;-76
2021/04/24 00:44:55;;;;;;;14.02;5.70;;;;;;;5.21;59.06;96021.16;4972410;28;20512;-74
2021/04/24 00:47:22;;;;;;;13.02;5.28;;;;;;;5.24;59.02;96027.00;4972123;28;20026;-67
2021/04/24 00:49:48;;;;;;;11.60;5.05;;;;;;;5.12;58.88;96006.06;4974348;28;20049;-76
2021/04/24 00:52:15;;;;;;;7.60;4.88;;;;;;;5.18;58.98;96018.25;4987338;28;20027;-75
2021/04/24 00:54:40;;;;;;;9.18;5.45;;;;;;;5.14;58.85;96010.00;4987153;28;20511;-75
2021/04/24 00:57:07;;;;;;;8.15;4.80;;;;;;;5.05;58.74;96003.59;4971953;28;20043;-76
2021/04/24 00:59:34;;;;;;;8.13;5.10;;;;;;;5.03;58.75;96005.69;4972216;28;20046;-75
2021/04/24 01:02:01;;;;;;;9.30;5.55;;;;;;;5.02;58.96;96006.72;4973843;28;20075;-75
2021/04/24 01:04:26;;;;;;;8.23;5.00;;;;;;;4.95;58.85;96000.84;4972172;28;20030;-75
2021/04/24 01:06:51;;;;;;;10.48;4.90;;;;;;;4.84;58.78;95978.03;4986718;28;20039;-77
2021/04/24 01:09:17;;;;;;;9.68;5.18;;;;;;;4.87;59.01;95988.09;4972056;28;20043;-75
2021/04/24 01:11:42;;;;;;;11.30;4.97;;;;;;;4.82;59.00;95991.47;4970343;28;20070;-75
2021/04/24 01:14:08;;;;;;;10.35;4.90;;;;;;;4.82;59.33;95985.41;4988711;28;20026;-75
2021/04/24 01:16:33;;;;;;;10.98;5.28;;;;;;;4.79;59.32;95993.81;4972087;28;20059;-77
2021/04/24 01:18:59;;;;;;;6.25;4.60;;;;;;;4.76;59.57;95992.47;4971098;28;20501;-75
2021/04/24 01:21:26;;;;;;;8.23;5.40;;;;;;;4.60;59.44;95962.47;4971610;28;20066;-76
2021/04/24 01:23:52;;;;;;;8.48;4.93;;;;;;;4.65;59.44;95977.56;4986603;28;20118;-75
2021/04/24 01:26:18;;;;;;;10.57;5.35;;;;;;;4.63;59.36;95985.72;4988669;28;20386;-75
2021/04/24 01:28:45;;;;;;;6.07;4.88;;;;;;;4.55;59.84;95975.59;4986087;28;20480;-76
2021/04/24 01:31:11;;;;;;;7.68;4.82;;;;;;;4.58;60.02;95980.38;4971434;28;20130;-75
2021/04/24 01:33:37;;;;;;;8.38;4.63;;;;;;;4.50;60.18;95967.63;4971089;28;20074;-76
2021/04/24 01:36:02;;;;;;;9.43;4.50;;;;;;;4.51;60.15;95974.50;4971157;28;20034;-74
2021/04/24 01:38:28;;;;;;;9.15;5.20;;;;;;;4.46;60.64;95969.19;4970790;28;20027;-75
2021/04/24 01:40:54;;;;;;;13.95;6.57;;;;;;;4.46;60.76;95977.06;4987934;28;20046;-75
2021/04/24 01:43:20;;;;;;;9.65;4.80;;;;;;;4.41;61.57;95977.81;4971451;28;20049;-75
2021/04/24 01:45:45;;;;;;;9.65;4.85;;;;;;;4.42;61.28;95982.03;4971756;28;20050;-75
2021/04/24 01:48:11;;;;;;;12.73;5.40;;;;;;;4.41;60.94;95966.47;4970689;28;20149;-74
2021/04/24 01:50:45;;;;;;;5.90;4.85;;;;;;;4.46;60.75;95971.81;4970698;28;20030;-74
2021/04/24 01:53:22;;;;;;;8.05;5.43;;;;;;;4.41;60.99;95966.47;4972613;28;20033;-76
2021/04/24 01:55:49;;;;;;;13.20;5.40;;;;;;;4.28;61.55;95967.63;4971228;28;20049;-75
2021/04/24 01:58:19;;;;;;;7.82;5.32;;;;;;;4.41;61.34;95971.75;4970338;28;20101;-75
2021/04/24 02:00:50;;;;;;;11.55;5.63;;;;;;;3.98;61.25;95902.19;4970700;28;20509;-73
2021/04/24 02:03:15;;;;;;;9.20;5.32;;;;;;;4.37;61.29;95960.09;4970391;28;20042;-72
2021/04/24 02:05:45;;;;;;;8.32;5.60;;;;;;;4.36;61.99;95967.19;4970525;28;20559;-76
2021/04/24 02:08:14;;;;;;;10.18;4.85;;;;;;;4.32;61.50;95949.50;4972181;28;20035;-74
2021/04/24 02:10:41;;;;;;;7.38;4.82;;;;;;;4.32;61.22;95950.28;4970490;28;20394;-73
2021/04/24 02:13:12;;;;;;;8.52;4.93;;;;;;;4.35;61.41;95960.34;4970555;28;20405;-76
2021/04/24 02:15:38;;;;;;;8.07;5.40;;;;;;;4.21;61.58;95945.16;4969974;28;20035;-75
2021/04/24 02:18:04;;;;;;;7.55;4.85;;;;;;;4.28;61.50;95964.19;4969133;28;20046;-75
2021/04/24 02:20:29;;;;;;;7.07;5.15;;;;;;;4.17;61.62;95948.25;4970312;28;20394;-75
2021/04/24 02:22:55;;;;;;;9.88;4.80;;;;;;;4.14;61.54;95943.47;4972152;28;20034;-75
2021/04/24 02:25:21;;;;;;;8.32;5.20;;;;;;;4.13;61.92;95949.78;4970476;28;20058;-73
2021/04/24 02:27:47;;;;;;;11.52;5.80;;;;;;;4.14;61.58;95954.00;4970024;28;20034;-74
2021/04/24 02:30:16;;;;;;;11.73;5.20;;;;;;;4.08;62.01;95951.53;4970209;28;20038;-73
2021/04/24 02:32:42;;;;;;;7.47;4.80;;;;;;;4.09;62.10;95951.28;4969429;28;20055;-73
2021/04/24 02:35:10;;;;;;;9.82;5.15;;;;;;;4.06;62.05;95948.38;4972216;28;20449;-73
2021/04/24 02:37:36;;;;;;;10.45;5.10;;;;;;;4.00;62.09;95946.72;4969908;28;20082;-73
2021/04/24 02:40:05;;;;;;;10.73;5.57;;;;;;;4.01;62.22;95943.03;4985060;28;20045;-73
2021/04/24 02:42:31;;;;;;;8.32;5.50;;;;;;;3.93;62.47;95936.34;4984782;28;20045;-73
2021/04/24 02:44:58;;;;;;;8.05;5.53;;;;;;;3.89;62.16;95936.03;4970259;28;20030;-73
2021/04/24 02:47:24;;;;;;;5.65;4.78;;;;;;;3.84;62.61;95927.28;4969863;28;20054;-76
2021/04/24 02:49:50;;;;;;;9.90;5.20;;;;;;;3.84;62.63;95932.53;4971818;28;20035;-72
2021/04/24 02:52:16;;;;;;;9.35;5.53;;;;;;;3.83;62.86;95931.72;4969800;28;20041;-74
2021/04/24 02:54:41;;;;;;;5.40;4.47;;;;;;;3.83;62.90;95938.81;4969967;28;20540;-73
2021/04/24 02:57:07;;;;;;;12.55;5.53;;;;;;;3.69;62.96;95919.16;4969728;28;20051;-73
2021/04/24 02:59:33;;;;;;;7.90;4.93;;;;;;;3.73;62.75;95926.31;4969999;28;20094;-73
2021/04/24 03:01:59;;;;;;;8.70;5.25;;;;;;;3.72;62.69;95934.44;4971678;28;20035;-74
2021/04/24 03:04:25;;;;;;;9.35;4.93;;;;;;;3.74;62.53;95937.66;4970019;28;20046;-72
2021/04/24 03:06:51;;;;;;;10.00;5.40;;;;;;;3.67;62.56;95926.47;4969606;28;20047;-74
2021/04/24 03:09:16;;;;;;;8.98;5.20;;;;;;;3.64;62.85;95925.94;4970038;28;20167;-74
2021/04/24 03:11:43;;;;;;;8.15;5.72;;;;;;;3.68;62.72;95928.84;4983792;28;20042;-76
2021/04/24 03:14:09;;;;;;;10.35;5.70;;;;;;;3.64;62.63;95925.94;4971168;28;20038;-75
2021/04/24 03:16:35;;;;;;;14.05;6.43;;;;;;;3.60;62.68;95927.44;4968886;28;20035;-75
2021/04/24 03:19:02;;;;;;;7.43;5.22;;;;;;;3.59;62.64;95931.13;4983486;28;20487;-76
2021/04/24 03:21:28;;;;;;;12.20;5.93;;;;;;;3.57;62.38;95933.19;4968671;28;20047;-72
2021/04/24 03:23:54;;;;;;;14.43;5.93;;;;;;;3.47;62.38;95921.69;4967595;28;20438;-73
2021/04/24 03:26:20;;;;;;;12.45;6.00;;;;;;;3.45;62.44;95929.84;4970863;28;20031;-75
2021/04/24 03:28:45;;;;;;;6.88;5.53;;;;;;;3.49;62.36;95935.44;4968756;28;20035;-75
2021/04/24 03:31:11;;;;;;;9.55;5.50;;;;;;;3.50;63.17;95943.06;4968641;28;20062;-75
2021/04/24 03:33:38;;;;;;;12.40;6.05;;;;;;;3.45;62.64;95940.38;4968949;28;20039;-74
2021/04/24 03:36:03;;;;;;;10.65;5.78;;;;;;;3.45;62.78;95937.72;4968774;28;20035;-75
2021/04/24 03:38:29;;;;;;;20.52;6.13;;;;;;;3.37;62.52;95927.59;4968209;28;20405;-73
2021/04/24 03:40:55;;;;;;;13.27;6.05;;;;;;;3.35;62.87;95929.69;4970398;28;20067;-72
2021/04/24 03:43:20;;;;;;;10.52;5.90;;;;;;;3.28;62.93;95921.97;4970374;28;20416;-75
2021/04/24 03:45:46;;;;;;;9.27;5.70;;;;;;;3.27;62.49;95919.53;4971967;28;20046;-76
2021/04/24 03:48:11;;;;;;;9.70;5.82;;;;;;;3.28;62.77;95923.78;4972373;28;20094;-76
2021/04/24 03:50:37;;;;;;;10.77;5.38;;;;;;;3.33;62.59;95937.81;4972565;28;20039;-73
2021/04/24 03:53:03;;;;;;;13.45;6.35;;;;;;;3.25;63.08;95919.00;4972344;28;20039;-72
2021/04/24 03:55:28;;;;;;;8.88;5.30;;;;;;;3.20;63.20;95916.28;4986891;28;20049;-73
2021/04/24 03:57:54;;;;;;;9.85;6.18;;;;;;;3.36;63.32;95939.94;4971531;28;20397;-73
2021/04/24 04:00:22;;;;;;;8.55;5.22;;;;;;;3.31;62.86;95929.34;4972060;28;20038;-72
2021/04/24 04:02:49;;;;;;;9.40;5.70;;;;;;;3.34;63.06;95936.78;4971951;28;20045;-74
2021/04/24 04:05:17;;;;;;;9.98;6.07;;;;;;;3.29;63.23;95928.81;4974318;28;20023;-73
2021/04/24 04:07:43;;;;;;;7.93;5.35;;;;;;;3.30;63.04;95926.97;4971882;28;20066;-73
2021/04/24 04:10:09;;;;;;;11.43;5.32;;;;;;;3.32;63.10;95941.44;4951793;28;585043;-74
2021/04/24 04:12:35;;;;;;;11.15;5.43;;;;;;;3.24;63.09;95925.28;4971789;28;20039;-73
2021/04/24 04:15:02;;;;;;;7.65;5.20;;;;;;;3.36;62.98;95934.69;4987613;28;20050;-73
2021/04/24 04:17:28;;;;;;;15.07;5.57;;;;;;;3.29;62.44;95922.75;4972546;28;20023;-72
2021/04/24 04:19:53;;;;;;;12.80;6.53;;;;;;;3.35;62.68;95924.41;4974448;28;20389;-74
2021/04/24 04:22:18;;;;;;;14.57;6.22;;;;;;;3.36;62.62;95924.16;4987336;28;20054;-72
2021/04/24 04:24:44;;;;;;;8.98;5.68;;;;;;;3.41;62.94;95935.81;4972507;28;20035;-74
2021/04/24 04:27:09;;;;;;;9.32;5.50;;;;;;;3.40;63.16;95921.88;4972258;28;20085;-73
2021/04/24 04:29:34;;;;;;;9.93;5.63;;;;;;;3.52;62.94;95925.22;4972489;28;20030;-73
2021/04/24 04:32:00;;;;;;;8.68;5.38;;;;;;;3.58;63.16;95928.72;4974260;28;20111;-75
2021/04/24 04:34:26;;;;;;;9.35;5.03;;;;;;;3.57;62.77;95908.72;4987232;28;20436;-73
2021/04/24 04:36:52;;;;;;;12.80;5.43;;;;;;;3.81;62.45;95928.53;4972004;28;20035;-73
2021/04/24 04:39:17;;;;;;;8.07;5.13;;;;;;;4.02;62.26;95931.47;4972084;28;20102;-75
2021/04/24 04:41:43;;;;;;;7.20;4.10;;;;;;;4.22;61.73;95938.84;4986780;28;20043;-74
2021/04/24 04:44:08;;;;;;;8.73;4.38;;;;;;;4.46;61.39;95942.03;4974065;28;20046;-74
2021/04/24 04:46:33;;;;;;;7.55;4.55;;;;;;;4.53;61.04;95930.25;4972130;28;20125;-74
2021/04/24 04:48:59;;;;;;;12.65;4.57;;;;;;;4.80;60.88;95948.72;4971878;28;20046;-74
2021/04/24 04:51:24;;;;;;;6.72;4.57;;;;;;;4.98;60.35;95946.81;4971682;28;20050;-72
2021/04/24 04:53:50;;;;;;;9.85;4.30;;;;;;;5.05;59.73;95927.13;4971049;28;20047;-73
2021/04/24 04:56:15;;;;;;;9.27;4.45;;;;;;;5.31;59.32;95948.44;4973712;28;20031;-73
2021/04/24 04:58:41;;;;;;;10.52;4.50;;;;;;;5.57;58.89;95954.72;4971559;28;20489;-74
2021/04/24 05:01:06;;;;;;;5.88;4.30;;;;;;;5.72;58.40;95944.28;4971864;28;20511;-75
2021/04/24 05:03:31;;;;;;;5.35;4.05;;;;;;;5.87;57.21;95946.25;4971543;28;20046;-74
2021/04/24 05:05:58;;;;;;;8.40;4.78;;;;;;;6.03;57.38;95955.88;4971787;28;20391;-74
2021/04/24 05:08:24;;;;;;;6.88;4.43;;;;;;;6.12;57.20;95951.72;4971578;28;20458;-74
2021/04/24 05:10:50;;;;;;;12.27;4.40;;;;;;;6.30;56.50;95949.72;4973606;28;20030;-74
2021/04/24 05:13:16;;;;;;;16.90;4.97;;;;;;;6.29;56.07;95950.75;4971571;28;20038;-74
2021/04/24 05:15:41;;;;;;;11.45;5.63;;;;;;;6.45;56.38;95965.66;4971146;28;20034;-73
2021/04/24 05:18:06;;;;;;;8.02;5.18;;;;;;;6.45;55.62;95966.44;4971259;28;20506;-72
2021/04/24 05:20:32;;;;;;;8.73;4.63;;;;;;;6.43;56.21;95962.47;4971452;28;20053;-72
2021/04/24 05:22:57;;;;;;;7.50;4.75;;;;;;;6.41;55.51;95948.72;4973216;28;20019;-74
2021/04/24 05:25:23;;;;;;;10.18;4.95;;;;;;;6.55;55.40;95968.31;4986525;28;20123;-74
2021/04/24 05:27:48;;;;;;;7.63;4.65;;;;;;;6.58;55.34;95948.53;4971976;28;20034;-79
2021/04/24 05:30:18;;;;;;;5.93;4.25;;;;;;;6.79;55.25;95966.03;4987684;28;20170;-80
2021/04/24 05:32:45;;;;;;;9.48;4.82;;;;;;;6.68;55.11;95962.56;4987662;28;20046;-76
2021/04/24 05:35:12;;;;;;;16.30;5.10;;;;;;;6.74;55.81;95958.88;4988641;28;20031;-80
2021/04/24 05:37:37;;;;;;;11.85;5.60;;;;;;;6.70;55.53;95967.59;4987503;28;20122;-78
2021/04/24 05:40:06;;;;;;;7.15;4.63;;;;;;;6.92;55.34;95972.72;4987034;28;20503;-69
2021/04/24 05:42:33;;;;;;;7.18;4.18;;;;;;;7.14;54.62;95973.28;4972436;28;20073;-81
2021/04/24 05:44:59;;;;;;;10.13;4.47;;;;;;;7.35;54.11;95978.63;4988642;28;20062;-73
2021/04/24 05:47:24;;;;;;;12.13;4.80;;;;;;;7.48;54.25;95980.78;4974003;28;20031;-75
2021/04/24 05:49:50;;;;;;;9.95;4.22;;;;;;;7.47;53.44;95969.38;4975070;28;20069;-80
2021/04/24 05:52:15;;;;;;;8.10;4.47;;;;;;;7.74;52.45;95985.03;4986895;28;20098;-76
2021/04/24 05:54:43;;;;;;;9.32;4.03;;;;;;;7.68;52.20;95987.94;4971420;28;20497;-77
2021/04/24 05:57:08;;;;;;;10.20;4.35;;;;;;;7.43;51.71;95975.47;4970954;28;20039;-77
2021/04/24 05:59:34;;;;;;;6.63;4.00;;;;;;;7.57;50.73;95976.53;4971142;28;20408;-76
2021/04/24 06:01:59;;;;;;;7.03;3.72;;;;;;;7.87;51.58;95993.47;4972468;28;20031;-76
2021/04/24 06:04:24;;;;;;;11.50;4.03;;;;;;;7.66;50.87;95974.16;4970808;28;20027;-76
2021/04/24 06:06:50;;;;;;;6.82;4.45;;;;;;;7.46;49.35;95974.94;4970645;28;20041;-75
2021/04/24 06:09:15;;;;;;;5.93;3.60;;;;;;;7.54;50.79;95985.81;4971050;28;20045;-75
2021/04/24 06:11:41;;;;;;;7.65;3.25;;;;;;;7.52;49.62;95990.56;4970735;28;20069;-75
2021/04/24 06:14:06;;;;;;;6.55;4.10;;;;;;;7.26;49.80;95979.13;4972935;28;20023;-75
2021/04/24 06:16:31;;;;;;;6.05;3.65;;;;;;;7.24;49.89;95978.59;4970371;28;20520;-73
2021/04/24 06:18:57;;;;;;;11.80;5.32;;;;;;;7.56;49.78;95974.94;4970295;28;20536;-73
2021/04/24 06:21:23;;;;;;;6.63;3.78;;;;;;;8.05;49.76;95987.66;4970075;28;20042;-72
2021/04/24 06:23:48;;;;;;;5.65;3.55;;;;;;;8.11;49.41;95980.50;4970975;28;20580;-71
2021/04/24 06:26:14;;;;;;;10.05;4.72;;;;;;;8.45;48.53;95973.56;4988263;28;20037;-72
2021/04/24 06:28:39;;;;;;;6.88;4.35;;;;;;;8.16;49.10;95975.19;4984824;28;20497;-74
2021/04/24 06:31:05;;;;;;;7.57;4.10;;;;;;;8.47;49.74;95992.63;4971094;28;20109;-75
2021/04/24 06:33:30;;;;;;;7.55;4.00;;;;;;;8.74;48.27;96002.91;4970921;28;20046;-80
2021/04/24 06:35:55;;;;;;;6.40;3.60;;;;;;;8.76;47.34;95998.13;4970804;28;20393;-73
2021/04/24 06:38:23;;;;;;;4.57;3.60;;;;;;;8.87;46.97;96001.53;4971636;28;20110;-72
2021/04/24 06:40:48;;;;;;;9.35;3.60;;;;;;;8.90;47.09;96002.84;4970017;28;20129;-68
2021/04/24 06:43:14;;;;;;;5.72;3.45;;;;;;;9.38;47.02;95988.81;4970697;28;20182;-69
2021/04/24 06:45:39;;;;;;;8.57;3.55;;;;;;;9.11;46.85;95996.41;4971020;28;20528;-70
2021/04/24 06:48:05;;;;;;;6.07;3.53;;;;;;;9.47;46.46;95989.03;4970756;28;20132;-72
2021/04/24 06:50:30;;;;;;;7.53;3.83;;;;;;;9.57;45.95;95972.19;4970341;28;20053;-71
2021/04/24 06:52:56;;;;;;;10.48;3.83;;;;;;;9.36;45.99;95990.91;4972533;28;20027;-74
2021/04/24 06:55:22;;;;;;;6.60;3.53;;;;;;;9.63;45.64;95979.09;4970657;28;20031;-73
2021/04/24 06:57:48;;;;;;;5.00;3.58;;;;;;;9.83;45.41;95988.78;4970625;28;20138;-72
2021/04/24 07:00:16;;;;;;;5.65;4.20;;;;;;;9.85;45.22;95971.47;4970746;28;20031;-73
2021/04/24 07:02:43;;;;;;;6.13;3.75;;;;;;;9.98;44.83;95975.34;4970559;28;20509;-73
2021/04/24 07:05:10;;;;;;;5.45;4.00;;;;;;;10.18;44.55;95968.25;4972701;28;20042;-72
2021/04/24 07:07:35;;;;;;;7.50;4.38;;;;;;;10.18;43.83;95976.22;4970501;28;20516;-72
2021/04/24 07:10:01;;;;;;;9.90;3.92;;;;;;;10.45;44.05;95959.78;4970805;28;20129;-73
2021/04/24 07:12:27;;;;;;;7.40;3.90;;;;;;;10.80;43.72;95974.53;4970562;28;20437;-72
2021/04/24 07:14:52;;;;;;;10.85;4.20;;;;;;;11.00;44.41;95960.19;4970192;28;20396;-73
2021/04/24 07:17:17;;;;;;;11.93;5.05;;;;;;;11.22;43.74;95962.31;4972882;28;20063;-73
2021/04/24 07:19:43;;;;;;;15.10;4.90;;;;;;;11.36;43.34;95961.31;4974159;28;20045;-72
2021/04/24 07:22:08;;;;;;;7.30;5.05;;;;;;;11.45;42.26;95953.44;4972669;28;20074;-70
2021/04/24 07:24:34;;;;;;;7.90;4.10;;;;;;;11.61;42.81;95949.44;4974473;28;20031;-72
2021/04/24 07:26:59;;;;;;;6.93;4.40;;;;;;;11.77;42.20;95951.88;4974056;28;20039;-73
2021/04/24 07:29:24;;;;;;;6.65;4.07;;;;;;;11.97;42.32;95965.69;4974480;28;20034;-73
2021/04/24 07:31:50;;;;;;;9.30;4.75;;;;;;;12.11;41.60;95967.63;4976112;28;20030;-74
2021/04/24 07:34:15;;;;;;;9.68;4.95;;;;;;;12.23;41.20;95959.94;4974218;28;20039;-73
2021/04/24 07:36:41;;;;;;;8.90;4.13;;;;;;;12.31;40.06;95943.25;4973888;28;20525;-73
2021/04/24 07:39:06;;;;;;;7.15;4.10;;;;;;;12.39;40.01;95957.81;4974061;28;20374;-73
2021/04/24 07:41:32;;;;;;;5.28;4.15;;;;;;;11.31;40.74;95965.88;4974046;28;20106;-74
2021/04/24 07:43:58;;;;;;;7.28;4.30;;;;;;;11.30;40.23;95954.44;4976126;28;20449;-73
2021/04/24 07:46:23;;;;;;;6.97;4.50;;;;;;;11.34;40.71;95963.44;4974840;28;20429;-73
2021/04/24 07:48:49;;;;;;;9.73;4.63;;;;;;;11.25;40.71;95961.72;4973887;28;20039;-70
2021/04/24 07:51:14;;;;;;;6.20;3.95;;;;;;;11.65;39.47;95953.13;4988278;28;20121;-70
2021/04/24 07:53:42;;;;;;;6.53;4.95;;;;;;;11.87;39.19;95943.75;4974342;28;20027;-79
2021/04/24 07:56:07;;;;;;;7.57;4.32;;;;;;;12.21;38.95;95965.56;4976423;28;20030;-78
2021/04/24 07:58:33;;;;;;;5.00;4.13;;;;;;;12.37;39.01;95958.09;4974497;28;20027;-72
2021/04/24 08:00:58;;;;;;;11.63;5.07;;;;;;;12.52;38.00;95953.56;4989115;28;20049;-78
2021/04/24 08:03:23;;;;;;;8.23;4.70;;;;;;;12.75;37.87;95952.56;4974494;28;20034;-82
2021/04/24 08:05:49;;;;;;;8.10;5.15;;;;;;;12.88;38.31;95953.63;4989709;28;20046;-78
2021/04/24 08:08:14;;;;;;;10.80;5.10;;;;;;;13.01;37.85;95944.84;4991048;28;20481;-77
2021/04/24 08:10:40;;;;;;;8.88;5.40;;;;;;;13.23;36.87;95962.81;4973999;28;20043;-74
2021/04/24 08:13:06;;;;;;;8.48;4.53;;;;;;;13.35;36.57;95944.38;4974449;28;20050;-74
2021/04/24 08:15:32;;;;;;;7.88;4.93;;;;;;;13.36;35.94;95940.63;4976701;28;20038;-74
2021/04/24 08:17:58;;;;;;;9.32;6.35;;;;;;;12.84;35.97;95956.09;4998904;28;20369;-78
2021/04/24 08:20:24;;;;;;;12.80;5.40;;;;;;;12.95;35.98;95957.50;5004090;28;20137;-74
2021/04/24 08:22:51;;;;;;;7.32;4.75;;;;;;;13.38;35.97;95946.47;5003596;28;20105;-81
2021/04/24 08:25:16;;;;;;;8.73;6.25;;;;;;;13.61;35.64;95946.47;4993597;28;20045;-79
2021/04/24 08:27:43;;;;;;;12.15;8.93;;;;;;;13.77;35.16;95945.03;4992743;28;20484;-74
2021/04/24 08:30:13;;;;;;;9.50;5.82;;;;;;;13.98;34.66;95946.13;5008352;28;20518;-79
2021/04/24 08:32:38;;;;;;;10.60;6.68;;;;;;;14.10;34.53;95934.06;4993032;28;20022;-79
2021/04/24 08:35:06;;;;;;;7.00;5.60;;;;;;;14.14;33.89;95937.72;4994901;28;20080;-73
2021/04/24 08:37:31;;;;;;;8.18;5.88;;;;;;;14.28;32.42;95947.22;4992898;28;20046;-77
2021/04/24 08:39:57;;;;;;;7.32;5.65;;;;;;;14.34;33.09;95921.13;4992802;28;20069;-75
2021/04/24 08:42:22;;;;;;;8.80;6.35;;;;;;;14.40;32.54;95919.09;4992352;28;20042;-75
2021/04/24 08:44:51;;;;;;;10.35;6.45;;;;;;;14.50;32.34;95937.59;4991379;28;20034;-75
2021/04/24 08:47:21;;;;;;;10.73;6.13;;;;;;;14.49;31.89;95938.69;4994245;28;20496;-74
2021/04/24 08:49:47;;;;;;;10.10;6.57;;;;;;;14.18;30.83;95933.34;4992619;28;20046;-69
2021/04/24 08:52:13;;;;;;;6.85;5.80;;;;;;;14.37;30.68;95931.19;5007735;28;20034;-78
2021/04/24 08:54:38;;;;;;;14.48;6.60;;;;;;;14.22;30.47;95932.38;4993205;28;20102;-78
2021/04/24 08:57:04;;;;;;;9.75;6.82;;;;;;;14.05;30.86;95933.09;4993199;28;20022;-76
2021/04/24 08:59:29;;;;;;;14.05;6.20;;;;;;;14.36;30.68;95929.63;4993044;28;20054;-78
2021/04/24 09:01:54;;;;;;;7.60;6.30;;;;;;;14.17;29.56;95935.19;4994956;28;20022;-77
2021/04/24 09:04:20;;;;;;;7.10;6.25;;;;;;;14.25;29.76;95923.75;4993294;28;20399;-75
2021/04/24 09:06:45;;;;;;;8.93;5.78;;;;;;;14.25;29.16;95939.03;4991963;28;20034;-74
2021/04/24 09:09:12;;;;;;;12.23;6.78;;;;;;;14.35;29.37;95929.94;4992165;28;20093;-73
2021/04/24 09:11:40;;;;;;;18.48;6.55;;;;;;;13.77;29.91;95929.00;4992163;28;20031;-77
2021/04/24 09:14:12;;;;;;;9.30;6.63;;;;;;;13.61;30.43;95928.53;4994451;28;20023;-76
2021/04/24 09:16:37;;;;;;;;;;;;;;;14.00;30.50;95929.75;4992901;28;20085;-75
2021/04/24 09:19:25;;;;;;;10.75;6.72;;;;;;;14.36;29.98;95924.28;4991638;28;20351;-74
2021/04/24 09:22:17;;;;;;;13.18;6.78;;;;;;;14.77;30.14;95917.84;4991934;28;20042;-70
2021/04/24 09:24:46;;;;;;;11.15;6.70;;;;;;;14.81;30.00;95908.09;5007916;28;20038;-73
2021/04/24 09:27:12;;;;;;;14.52;6.80;;;;;;;15.15;30.08;95918.09;5006681;28;20034;-68
2021/04/24 09:29:38;;;;;;;12.20;7.45;;;;;;;14.80;29.63;95903.84;5006485;28;20030;-67
2021/04/24 09:32:15;;;;;;;11.35;8.00;;;;;;;14.92;29.83;95906.69;4993583;28;20026;-70
2021/04/24 09:34:41;;;;;;;17.63;7.82;;;;;;;14.62;29.66;95902.19;5006752;28;20038;-70
2021/04/24 09:37:20;;;;;;;10.88;7.65;;;;;;;14.99;28.56;95895.50;4991308;28;20149;-69
2021/04/24 09:39:48;;;;;;;8.93;7.18;;;;;;;15.30;28.86;95901.53;4991156;28;20085;-71
2021/04/24 09:42:34;;;;;;;15.95;7.45;;;;;;;15.50;28.94;95902.00;5004772;28;20079;-69
2021/04/24 09:44:59;;;;;;;9.35;6.32;;;;;;;15.41;28.56;95899.34;4991258;28;20732;-73
2021/04/24 09:47:45;;;;;;;11.82;7.60;;;;;;;15.23;27.89;95895.06;4991098;28;20121;-73
2021/04/24 09:50:16;;;;;;;8.82;7.45;;;;;;;15.16;27.64;95886.72;4992736;28;20061;-73
2021/04/24 09:52:42;;;;;;;9.95;7.20;;;;;;;15.15;27.68;95891.28;4991253;28;20038;-73
2021/04/24 09:55:16;;;;;;;11.13;7.72;;;;;;;15.04;29.01;95869.34;4991115;28;20046;-75
2021/04/24 09:57:42;;;;;;;9.23;7.07;;;;;;;15.52;28.01;95881.03;4990555;28;20519;-73
2021/04/24 10:00:16;;;;;;;9.20;7.40;;;;;;;15.71;27.70;95873.44;4990862;28;20038;-74
2021/04/24 10:02:45;;;;;;;10.38;7.55;;;;;;;15.93;28.68;95882.41;4990950;28;20045;-73
2021/04/24 10:05:21;;;;;;;10.60;7.15;;;;;;;16.13;28.22;95879.03;4993079;28;20031;-72
2021/04/24 10:07:48;;;;;;;10.18;7.53;;;;;;;16.18;26.56;95868.13;4990995;28;20160;-74
2021/04/24 10:10:34;;;;;;;9.88;8.00;;;;;;;15.88;27.33;95866.47;4991096;28;20076;-75
2021/04/24 10:13:01;;;;;;;9.00;7.82;;;;;;;15.04;27.88;95863.97;4982539;28;20467;-74
2021/04/24 10:15:39;;;;;;;9.82;8.48;;;;;;;15.15;28.11;95853.78;4990729;28;20030;-73
2021/04/24 10:18:07;;;;;;;11.60;7.55;;;;;;;15.51;27.46;95856.13;4990566;28;20034;-74
2021/04/24 10:20:34;;;;;;;15.55;7.63;;;;;;;15.66;27.84;95848.69;4990362;28;20035;-74
2021/04/24 10:23:05;;;;;;;11.98;8.45;;;;;;;15.27;27.77;95845.88;4992518;28;20049;-77
2021/04/24 10:25:30;;;;;;;11.40;7.77;;;;;;;15.49;27.92;95836.84;4991155;28;20488;-70
2021/04/24 10:27:57;;;;;;;9.63;8.05;;;;;;;15.70;26.85;95855.00;4990344;28;20046;-71
2021/04/24 10:30:23;;;;;;;11.07;7.40;;;;;;;15.09;26.80;95855.78;4989492;28;20555;-72
2021/04/24 10:32:49;;;;;;;9.65;7.55;;;;;;;15.23;26.70;95846.81;4991626;28;20064;-81
2021/04/24 10:35:15;;;;;;;10.68;6.97;;;;;;;15.03;27.06;95849.00;4993054;28;20022;-72
2021/04/24 10:37:51;;;;;;;10.90;7.35;;;;;;;15.62;26.32;95837.00;4990224;28;20498;-72
2021/04/24 10:40:19;;;;;;;9.27;7.22;;;;;;;15.72;26.65;95836.69;4989271;28;20089;-72
2021/04/24 10:42:50;;;;;;;8.68;6.90;;;;;;;15.83;26.22;95841.41;4990306;28;20065;-72
2021/04/24 10:45:29;;;;;;;9.07;7.43;;;;;;;16.06;25.86;95843.84;4990558;28;20026;-72
2021/04/24 10:47:55;;;;;;;9.27;7.10;;;;;;;16.10;25.62;95834.03;4990278;28;20090;-72
2021/04/24 10:50:45;;;;;;;8.25;7.18;;;;;;;16.48;24.78;95841.28;4989875;28;20368;-65
2021/04/24 10:53:25;;;;;;;9.73;7.07;;;;;;;16.16;25.33;95837.34;4988147;28;20558;-72
2021/04/24 10:55:53;;;;;;;7.95;7.15;;;;;;;16.57;24.71;95834.75;5005828;28;20117;-71
2021/04/24 10:58:22;;;;;;;9.75;7.32;;;;;;;16.75;24.45;95832.81;4990219;28;20046;-72
2021/04/24 11:00:53;;;;;;;8.05;7.25;;;;;;;16.92;24.36;95833.78;4990448;28;20050;-73
2021/04/24 11:03:42;;;;;;;9.23;6.93;;;;;;;16.78;24.77;95834.81;4990271;28;20038;-71
2021/04/24 11:06:13;;;;;;;7.60;6.80;;;;;;;16.67;24.26;95828.22;4990352;28;20053;-72
2021/04/24 11:08:41;;;;;;;10.95;7.47;;;;;;;16.54;24.50;95834.66;4990129;28;20120;-72
2021/04/24 11:11:17;;;;;;;8.68;6.85;;;;;;;16.80;24.80;95810.34;4992050;28;20027;-72
2021/04/24 11:14:02;;;;;;;15.43;7.18;;;;;;;16.15;24.59;95828.50;4990188;28;20034;-74
2021/04/24 11:16:32;;;;;;;11.50;7.70;;;;;;;16.49;24.70;95821.41;4990468;28;20377;-77
2021/04/24 11:18:58;;;;;;;11.63;7.00;;;;;;;16.07;25.18;95823.94;4990011;28;20154;-80
2021/04/24 11:21:28;;;;;;;9.38;7.18;;;;;;;16.37;24.33;95822.06;4989505;28;20053;-70
2021/04/24 11:24:00;;;;;;;9.43;6.65;;;;;;;15.61;26.00;95822.81;4989176;28;20039;-71
2021/04/24 11:26:34;;;;;;;8.43;7.60;;;;;;;16.26;25.04;95813.59;4989859;28;20038;-71
2021/04/24 11:29:17;;;;;;;8.35;7.45;;;;;;;16.64;24.63;95810.09;5006876;28;20034;-71
2021/04/24 11:31:42;;;;;;;10.68;7.35;;;;;;;16.23;24.85;95805.44;4989999;28;20034;-72
2021/04/24 11:34:42;;;;;;;9.20;6.95;;;;;;;16.18;25.09;95819.03;5004910;28;20050;-70
2021/04/24 11:37:10;;;;;;;8.90;6.32;;;;;;;16.68;24.38;95808.31;4988442;28;20042;-70